createdAt,value
2024-02-06T00:01:12.314Z,68.11
2024-02-06T00:03:39.331Z,68.06
2024-02-06T00:06:06.350Z,68.00
2024-02-06T00:08:33.332Z,67.95
2024-02-06T00:11:00.109Z,68.52
2024-02-06T00:13:26.909Z,68.38
2024-02-06T00:15:53.734Z,68.49
2024-02-06T00:18:20.571Z,67.74
2024-02-06T00:20:47.356Z,68.24
2024-02-06T00:23:14.093Z,67.83
2024-02-06T00:25:40.879Z,68.00
2024-02-06T00:28:08.980Z,67.86
2024-02-06T00:30:36.913Z,67.96
2024-02-06T00:33:03.801Z,67.86
2024-02-06T00:35:30.572Z,68.15
2024-02-06T00:37:57.339Z,67.82
2024-02-06T00:40:24.147Z,67.37
2024-02-06T00:42:50.975Z,67.00
2024-02-06T00:45:17.726Z,66.92
2024-02-06T00:47:44.686Z,66.80
2024-02-06T00:50:11.747Z,67.09
2024-02-06T00:52:38.631Z,66.79
2024-02-06T00:55:05.468Z,66.67
2024-02-06T00:57:32.267Z,66.45
2024-02-06T00:59:59.100Z,66.69
2024-02-06T01:02:25.832Z,66.87
2024-02-06T01:04:52.786Z,67.04
2024-02-06T01:07:19.792Z,66.03
2024-02-06T01:09:46.637Z,66.25
2024-02-06T01:12:13.411Z,66.72
2024-02-06T01:14:40.142Z,66.66
2024-02-06T01:17:06.939Z,66.65
2024-02-06T01:19:33.769Z,66.59
2024-02-06T01:22:00.655Z,66.22
2024-02-06T01:24:27.416Z,66.66
2024-02-06T01:26:54.226Z,66.90
2024-02-06T01:29:20.982Z,67.34
2024-02-06T01:31:47.789Z,66.96
2024-02-06T01:34:14.672Z,67.59
2024-02-06T01:36:41.508Z,67.55
2024-02-06T01:39:08.279Z,67.59
2024-02-06T01:41:35.005Z,68.50
2024-02-06T01:44:01.778Z,68.99
2024-02-06T01:46:28.579Z,68.51
2024-02-06T01:48:55.454Z,68.19
2024-02-06T01:51:23.524Z,68.71
2024-02-06T01:53:51.434Z,68.75
2024-02-06T01:56:18.193Z,68.65
2024-02-06T01:58:44.958Z,69.34
2024-02-06T02:01:11.849Z,69.15
2024-02-06T02:03:38.703Z,69.68
2024-02-06T02:06:05.586Z,69.17
2024-02-06T02:08:32.495Z,69.65
2024-02-06T02:10:59.271Z,69.92
2024-02-06T02:13:26.110Z,70.13
2024-02-06T02:15:52.992Z,70.94
2024-02-06T02:18:19.854Z,70.57
2024-02-06T02:20:46.667Z,71.18
2024-02-06T02:23:19.781Z,71.38
2024-02-06T02:25:52.344Z,71.89
2024-02-06T02:28:19.155Z,71.86
2024-02-06T02:30:45.960Z,71.84
2024-02-06T02:33:12.749Z,72.28
2024-02-06T02:35:39.572Z,71.89
2024-02-06T02:38:06.368Z,72.42
2024-02-06T02:40:33.205Z,72.17
2024-02-06T02:43:00.042Z,71.80
2024-02-06T02:45:26.813Z,71.82
2024-02-06T02:47:53.648Z,72.31
2024-02-06T02:50:20.882Z,72.49
2024-02-06T02:52:47.658Z,72.41
2024-02-06T02:55:14.418Z,72.76
2024-02-06T02:57:41.234Z,72.65
2024-02-06T03:00:08.029Z,72.99
2024-02-06T03:02:34.875Z,72.94
2024-02-06T03:05:01.673Z,73.32
2024-02-06T03:07:28.481Z,74.04
2024-02-06T03:09:55.274Z,74.34
2024-02-06T03:12:22.061Z,73.77
2024-02-06T03:14:48.815Z,73.81
2024-02-06T03:17:15.588Z,74.17
2024-02-06T03:19:42.519Z,73.67
2024-02-06T03:22:09.440Z,73.61
2024-02-06T03:24:36.242Z,73.19
2024-02-06T03:27:03.062Z,73.50
2024-02-06T03:29:29.830Z,73.42
2024-02-06T03:31:56.599Z,73.59
2024-02-06T03:34:23.546Z,73.21
2024-02-06T03:36:50.339Z,73.03
2024-02-06T03:39:17.137Z,72.88
2024-02-06T03:41:43.952Z,72.96
2024-02-06T03:44:10.688Z,73.12
2024-02-06T03:46:37.680Z,72.97
2024-02-06T03:49:04.630Z,73.61
2024-02-06T03:51:31.538Z,72.90
2024-02-06T03:53:58.305Z,72.91
2024-02-06T03:56:25.039Z,72.97
2024-02-06T03:58:51.937Z,72.83
2024-02-06T04:01:18.772Z,72.72
2024-02-06T04:03:45.611Z,72.33
2024-02-06T04:06:12.349Z,72.03
2024-02-06T04:08:39.121Z,72.14
2024-02-06T04:11:05.920Z,71.83
2024-02-06T04:13:32.853Z,71.95
2024-02-06T04:15:59.678Z,71.82
2024-02-06T04:18:26.546Z,71.52
2024-02-06T04:20:53.368Z,71.48
2024-02-06T04:23:20.093Z,71.42
2024-02-06T04:25:46.875Z,71.40
2024-02-06T04:28:13.672Z,71.23
2024-02-06T04:30:40.472Z,71.54
2024-02-06T04:33:07.331Z,71.15
2024-02-06T04:35:34.184Z,70.94
2024-02-06T04:38:00.919Z,71.16
2024-02-06T04:40:27.748Z,71.70
2024-02-06T04:42:54.547Z,71.66
2024-02-06T04:45:21.360Z,71.26
2024-02-06T04:47:48.206Z,71.19
2024-02-06T04:50:15.063Z,70.97
2024-02-06T04:52:42.270Z,71.31
2024-02-06T04:55:09.245Z,71.28
2024-02-06T04:57:36.032Z,72.05
2024-02-06T05:00:02.801Z,72.29
2024-02-06T05:02:29.550Z,72.29
2024-02-06T05:04:56.393Z,72.13
2024-02-06T05:07:23.336Z,72.52
2024-02-06T05:09:50.201Z,72.86
2024-02-06T05:12:16.996Z,73.17
2024-02-06T05:14:43.722Z,73.12
2024-02-06T05:17:10.475Z,73.03
2024-02-06T05:19:37.249Z,72.78
2024-02-06T05:22:04.100Z,73.03
2024-02-06T05:24:30.835Z,73.04
2024-02-06T05:26:57.617Z,73.31
2024-02-06T05:29:24.376Z,72.79
2024-02-06T05:31:51.105Z,73.48
2024-02-06T05:34:17.980Z,72.19
2024-02-06T05:36:44.777Z,72.71
2024-02-06T05:39:11.542Z,72.16
2024-02-06T05:41:38.288Z,71.65
2024-02-06T05:44:05.058Z,72.01
2024-02-06T05:46:31.972Z,72.15
2024-02-06T05:48:58.836Z,71.36
2024-02-06T05:51:25.709Z,71.86
2024-02-06T05:53:52.466Z,71.97
2024-02-06T05:56:19.277Z,71.58
2024-02-06T05:58:46.116Z,71.22
2024-02-06T06:01:13.082Z,70.45
2024-02-06T06:03:40.248Z,71.03
2024-02-06T06:06:07.225Z,70.52
2024-02-06T06:08:34.069Z,70.74
2024-02-06T06:11:00.853Z,70.95
2024-02-06T06:13:27.836Z,70.82
2024-02-06T06:15:54.695Z,70.11
2024-02-06T06:18:21.660Z,70.32
2024-02-06T06:20:48.479Z,70.51
2024-02-06T06:23:15.269Z,70.31
2024-02-06T06:25:42.039Z,69.95
2024-02-06T06:28:08.867Z,70.74
2024-02-06T06:30:35.591Z,71.23
2024-02-06T06:33:02.444Z,70.34
2024-02-06T06:35:29.299Z,70.74
2024-02-06T06:37:56.111Z,71.18
2024-02-06T06:40:23.081Z,70.22
2024-02-06T06:42:49.882Z,70.90
2024-02-06T06:45:16.669Z,71.33
2024-02-06T06:47:43.538Z,70.87
2024-02-06T06:50:10.466Z,71.20
2024-02-06T06:52:37.476Z,70.59
2024-02-06T06:55:04.388Z,70.94
2024-02-06T06:57:31.189Z,71.07
2024-02-06T06:59:57.949Z,70.67
2024-02-06T07:02:24.770Z,70.21
2024-02-06T07:04:51.557Z,70.45
2024-02-06T07:07:18.359Z,69.88
2024-02-06T07:09:45.143Z,70.11
2024-02-06T07:12:11.917Z,70.33
2024-02-06T07:14:38.785Z,69.48
2024-02-06T07:17:05.560Z,69.80
2024-02-06T07:19:32.435Z,69.82
2024-02-06T07:21:59.354Z,69.81
2024-02-06T07:24:26.362Z,70.30
2024-02-06T07:26:53.282Z,70.32
2024-02-06T07:29:20.046Z,69.53
2024-02-06T07:31:46.907Z,69.48
2024-02-06T07:34:13.766Z,69.05
2024-02-06T07:36:40.578Z,69.70
2024-02-06T07:39:07.340Z,69.84
2024-02-06T07:41:34.090Z,69.23
2024-02-06T07:44:00.930Z,69.24
2024-02-06T07:46:27.753Z,70.22
2024-02-06T07:48:54.648Z,69.61
2024-02-06T07:51:21.443Z,69.65
2024-02-06T07:53:48.338Z,69.37
2024-02-06T07:56:15.104Z,69.36
2024-02-06T07:58:41.956Z,68.98
2024-02-06T08:01:08.865Z,69.42
2024-02-06T08:03:35.705Z,69.51
2024-02-06T08:06:02.603Z,69.64
2024-02-06T08:08:29.508Z,69.17
2024-02-06T08:10:56.325Z,68.88
2024-02-06T08:13:23.211Z,69.02
2024-02-06T08:15:50.023Z,69.48
2024-02-06T08:18:16.915Z,69.22
2024-02-06T08:20:43.709Z,69.12
2024-02-06T08:23:10.509Z,69.80
2024-02-06T08:25:37.294Z,69.14
2024-02-06T08:28:04.125Z,69.03
2024-02-06T08:30:31.114Z,68.95
2024-02-06T08:32:57.986Z,68.50
2024-02-06T08:35:24.927Z,68.27
2024-02-06T08:37:51.878Z,68.84
2024-02-06T08:40:18.785Z,67.81
2024-02-06T08:42:45.576Z,67.77
2024-02-06T08:45:12.343Z,67.26
2024-02-06T08:47:39.185Z,67.21
2024-02-06T08:50:06.049Z,67.39
2024-02-06T08:52:32.948Z,67.55
2024-02-06T08:54:59.734Z,67.57
2024-02-06T08:57:26.529Z,67.03
2024-02-06T08:59:53.304Z,67.41
2024-02-06T09:02:20.529Z,66.96
2024-02-06T09:04:47.619Z,66.86
2024-02-06T09:07:14.531Z,66.49
2024-02-06T09:09:41.328Z,65.90
2024-02-06T09:12:08.064Z,65.34
2024-02-06T09:14:39.133Z,65.37
2024-02-06T09:17:08.072Z,65.39
2024-02-06T09:19:36.257Z,65.65
2024-02-06T09:22:05.126Z,65.66
2024-02-06T09:24:31.881Z,65.91
2024-02-06T09:26:58.680Z,66.21
2024-02-06T09:29:25.469Z,66.00
2024-02-06T09:31:52.314Z,65.11
2024-02-06T09:34:19.288Z,65.66
2024-02-06T09:36:46.166Z,66.02
2024-02-06T09:39:12.918Z,65.88
2024-02-06T09:41:39.775Z,65.65
2024-02-06T09:44:07.599Z,65.41
2024-02-06T09:46:35.049Z,65.71
2024-02-06T09:49:01.999Z,65.47
2024-02-06T09:51:28.838Z,65.54
2024-02-06T09:53:55.633Z,65.75
2024-02-06T09:56:22.498Z,65.97
2024-02-06T09:58:49.298Z,65.47
2024-02-06T10:01:16.189Z,65.32
2024-02-06T10:03:42.996Z,64.82
2024-02-06T10:06:09.805Z,64.12
2024-02-06T10:08:36.543Z,64.31
2024-02-06T10:11:03.391Z,64.57
2024-02-06T10:13:30.218Z,63.50
2024-02-06T10:15:57.080Z,63.73
2024-02-06T10:18:23.851Z,64.23
2024-02-06T10:20:50.636Z,64.14
2024-02-06T10:23:17.396Z,64.06
2024-02-06T10:25:44.226Z,63.68
2024-02-06T10:28:11.288Z,64.00
2024-02-06T10:30:38.061Z,63.74
2024-02-06T10:33:04.850Z,63.28
2024-02-06T10:35:31.813Z,63.42
2024-02-06T10:37:58.758Z,63.37
2024-02-06T10:40:25.603Z,64.13
2024-02-06T10:43:25.898Z,65.03
2024-02-06T10:45:39.159Z,65.18
2024-02-06T10:48:05.959Z,65.15
2024-02-06T10:50:32.819Z,64.63
2024-02-06T10:52:59.909Z,64.79
2024-02-06T10:55:26.787Z,64.89
2024-02-06T10:57:53.722Z,65.42
2024-02-06T11:00:20.564Z,65.48
2024-02-06T11:02:47.330Z,64.52
2024-02-06T11:05:14.154Z,64.82
2024-02-06T11:07:41.112Z,64.57
2024-02-06T11:10:07.971Z,64.74
2024-02-06T11:12:37.731Z,64.99
2024-02-06T11:15:04.924Z,65.12
2024-02-06T11:17:31.762Z,65.79
2024-02-06T11:19:58.592Z,66.08
2024-02-06T11:22:25.505Z,65.79
2024-02-06T11:24:52.270Z,65.85
2024-02-06T11:27:19.013Z,66.04
2024-02-06T11:29:45.755Z,66.17
2024-02-06T11:32:12.510Z,66.00
2024-02-06T11:34:39.348Z,65.42
2024-02-06T11:37:06.218Z,65.38
2024-02-06T11:39:33.006Z,65.08
2024-02-06T11:41:59.810Z,64.82
2024-02-06T11:44:26.590Z,65.30
2024-02-06T11:46:53.391Z,64.94
2024-02-06T11:49:20.238Z,65.00
2024-02-06T11:51:47.059Z,64.42
2024-02-06T11:54:13.835Z,64.36
2024-02-06T11:56:40.607Z,63.87
2024-02-06T11:59:07.382Z,63.15
2024-02-06T12:01:36.401Z,63.15
2024-02-06T12:04:04.220Z,63.17
2024-02-06T12:06:31.080Z,62.76
2024-02-06T12:08:57.929Z,62.29
2024-02-06T12:11:24.744Z,62.36
2024-02-06T12:13:52.101Z,62.20
2024-02-06T12:16:19.174Z,62.25
2024-02-06T12:18:45.966Z,62.05
2024-02-06T12:21:12.844Z,62.17
2024-02-06T12:23:39.614Z,62.00
2024-02-06T12:26:06.372Z,62.23
2024-02-06T12:28:33.201Z,62.51
2024-02-06T12:31:00.029Z,62.24
2024-02-06T12:33:26.916Z,62.21
2024-02-06T12:35:53.771Z,61.98
2024-02-06T12:38:20.520Z,61.55
2024-02-06T12:40:47.407Z,62.41
2024-02-06T12:43:14.443Z,62.14
2024-02-06T12:45:41.262Z,62.48
2024-02-06T12:48:08.118Z,62.68
2024-02-06T12:50:35.266Z,62.43
2024-02-06T12:53:02.301Z,62.37
2024-02-06T12:55:30.949Z,62.56
2024-02-06T12:57:58.628Z,62.55
2024-02-06T13:00:25.457Z,62.47
2024-02-06T13:02:52.251Z,62.77
2024-02-06T13:05:19.167Z,62.42
2024-02-06T13:07:46.106Z,62.49
2024-02-06T13:10:13.378Z,61.90
2024-02-06T13:12:40.409Z,61.84
2024-02-06T13:15:07.198Z,61.48
2024-02-06T13:17:34.106Z,62.12
2024-02-06T13:20:01.018Z,61.79
2024-02-06T13:22:27.888Z,62.20
2024-02-06T13:24:54.728Z,61.76
2024-02-06T13:27:21.460Z,62.07
2024-02-06T13:29:48.221Z,61.99
2024-02-06T13:32:15.002Z,62.03
2024-02-06T13:34:41.828Z,62.31
2024-02-06T13:37:08.762Z,62.39
2024-02-06T13:39:35.542Z,62.50
2024-02-06T13:42:02.386Z,62.85
2024-02-06T13:44:29.113Z,63.08
2024-02-06T13:46:55.927Z,62.99
2024-02-06T13:49:22.802Z,63.68
2024-02-06T13:51:49.727Z,64.93
2024-02-06T13:54:16.609Z,65.33
2024-02-06T13:56:43.397Z,64.94
2024-02-06T13:59:10.177Z,64.93
2024-02-06T14:01:36.946Z,64.20
2024-02-06T14:04:07.003Z,63.98
2024-02-06T14:06:33.957Z,63.72
2024-02-06T14:09:00.828Z,64.06
2024-02-06T14:11:28.049Z,64.24
2024-02-06T14:13:54.958Z,64.47
2024-02-06T14:16:21.705Z,64.76
2024-02-06T14:18:48.493Z,64.70
2024-02-06T14:21:15.238Z,64.79
2024-02-06T14:23:41.978Z,64.80
2024-02-06T14:26:08.784Z,64.52
2024-02-06T14:28:35.569Z,64.69
2024-02-06T14:31:02.436Z,64.62
2024-02-06T14:33:29.352Z,64.70
2024-02-06T14:35:56.261Z,64.55
2024-02-06T14:38:23.094Z,64.35
2024-02-06T14:40:50.232Z,64.73
2024-02-06T14:43:17.138Z,64.21
2024-02-06T14:45:43.925Z,64.31
2024-02-06T14:48:10.818Z,64.23
2024-02-06T14:50:37.657Z,64.10
2024-02-06T14:53:04.515Z,63.91
2024-02-06T14:55:31.379Z,64.12
2024-02-06T14:57:58.200Z,63.80
2024-02-06T15:00:24.977Z,63.60
2024-02-06T15:02:54.320Z,63.46
2024-02-06T15:05:33.291Z,63.37
2024-02-06T15:08:00.174Z,63.56
2024-02-06T15:10:26.972Z,63.37
2024-02-06T15:12:53.740Z,63.25
2024-02-06T15:15:20.530Z,63.23
2024-02-06T15:17:47.339Z,62.95
2024-02-06T15:20:14.346Z,62.74
2024-02-06T15:22:41.383Z,62.88
2024-02-06T15:25:08.293Z,63.30
2024-02-06T15:27:35.104Z,62.73
2024-02-06T15:30:01.911Z,62.93
2024-02-06T15:32:31.077Z,62.99
2024-02-06T15:34:58.955Z,63.19
2024-02-06T15:37:25.779Z,63.09
2024-02-06T15:39:52.574Z,63.28
2024-02-06T15:42:19.401Z,63.41
2024-02-06T15:44:46.185Z,63.53
2024-02-06T15:47:12.980Z,63.59
2024-02-06T15:49:39.842Z,63.58
2024-02-06T15:52:06.709Z,63.64
2024-02-06T15:54:33.480Z,63.44
2024-02-06T15:57:00.411Z,63.51
2024-02-06T15:59:27.399Z,63.59
2024-02-06T16:01:54.270Z,63.53
2024-02-06T16:04:21.215Z,63.69
2024-02-06T16:06:48.106Z,63.86
2024-02-06T16:09:14.929Z,63.61
2024-02-06T16:11:41.782Z,63.57
2024-02-06T16:14:08.623Z,63.56
2024-02-06T16:16:35.472Z,63.62
2024-02-06T16:19:10.703Z,63.43
2024-02-06T16:21:45.532Z,63.63
2024-02-06T16:24:12.334Z,63.47
2024-02-06T16:26:39.065Z,63.26
2024-02-06T16:29:05.915Z,63.11
2024-02-06T16:31:32.720Z,63.25
2024-02-06T16:34:03.806Z,63.09
2024-02-06T16:36:30.769Z,63.36
2024-02-06T16:38:57.574Z,63.09
2024-02-06T16:41:24.416Z,63.04
2024-02-06T16:43:51.213Z,63.29
2024-02-06T16:46:18.047Z,63.50
2024-02-06T16:48:44.892Z,63.68
2024-02-06T16:51:11.697Z,63.62
2024-02-06T16:53:38.467Z,64.05
2024-02-06T16:56:05.297Z,66.03
2024-02-06T16:58:32.166Z,65.06
2024-02-06T17:00:59.055Z,65.13
2024-02-06T17:03:25.911Z,65.02
2024-02-06T17:05:52.939Z,65.17
2024-02-06T17:08:19.925Z,65.05
2024-02-06T17:10:46.805Z,65.18
2024-02-06T17:13:13.631Z,65.43
2024-02-06T17:15:40.458Z,65.49
2024-02-06T17:18:07.295Z,65.68
2024-02-06T17:20:34.148Z,65.98
2024-02-06T17:23:00.939Z,66.09
2024-02-06T17:25:27.706Z,65.92
2024-02-06T17:27:54.480Z,65.95
2024-02-06T17:30:21.259Z,66.23
2024-02-06T17:32:48.107Z,66.07
2024-02-06T17:35:15.063Z,65.87
2024-02-06T17:37:42.084Z,66.00
2024-02-06T17:40:08.885Z,65.98
2024-02-06T17:42:35.683Z,65.48
2024-02-06T17:45:04.849Z,65.47
2024-02-06T17:47:33.649Z,65.39
2024-02-06T17:50:00.552Z,65.42
2024-02-06T17:52:27.428Z,65.25
2024-02-06T17:54:54.195Z,65.27
2024-02-06T17:57:20.943Z,65.19
2024-02-06T17:59:47.714Z,65.27
2024-02-06T18:02:14.495Z,64.88
2024-02-06T18:04:41.464Z,64.99
2024-02-06T18:07:08.414Z,64.86
2024-02-06T18:09:35.192Z,65.05
2024-02-06T18:12:02.036Z,64.43
2024-02-06T18:14:28.793Z,64.55
2024-02-06T18:16:55.580Z,64.40
2024-02-06T18:19:22.475Z,65.44
2024-02-06T18:21:49.344Z,65.48
2024-02-06T18:24:16.082Z,66.11
2024-02-06T18:26:42.970Z,65.51
2024-02-06T18:29:09.879Z,65.67
2024-02-06T18:31:36.687Z,64.93
2024-02-06T18:34:03.658Z,64.80
2024-02-06T18:36:30.512Z,63.98
2024-02-06T18:38:57.300Z,63.88
2024-02-06T18:41:24.007Z,63.83
2024-02-06T18:43:50.916Z,63.31
2024-02-06T18:46:17.732Z,63.08
2024-02-06T18:48:44.547Z,63.13
2024-02-06T18:51:11.480Z,62.70
2024-02-06T18:53:38.250Z,62.81
2024-02-06T18:56:05.040Z,63.52
2024-02-06T18:58:31.862Z,63.63
2024-02-06T19:01:01.104Z,63.59
2024-02-06T19:03:29.467Z,63.46
2024-02-06T19:05:56.382Z,63.64
2024-02-06T19:08:23.273Z,63.71
2024-02-06T19:10:50.124Z,63.97
2024-02-06T19:13:17.012Z,64.16
2024-02-06T19:15:43.823Z,64.37
2024-02-06T19:18:10.643Z,64.66
2024-02-06T19:20:38.143Z,65.26
2024-02-06T19:23:04.961Z,65.20
2024-02-06T19:25:31.844Z,65.74
2024-02-06T19:27:58.651Z,65.45
2024-02-06T19:30:25.463Z,65.41
2024-02-06T19:32:52.209Z,65.35
2024-02-06T19:35:19.384Z,65.23
2024-02-06T19:37:46.428Z,65.10
2024-02-06T19:40:13.666Z,65.37
2024-02-06T19:42:40.533Z,65.20
2024-02-06T19:45:07.309Z,65.18
2024-02-06T19:47:34.114Z,65.62
2024-02-06T19:50:01.050Z,65.30
2024-02-06T19:52:27.949Z,65.80
2024-02-06T19:54:54.664Z,65.94
2024-02-06T19:57:21.413Z,66.28
2024-02-06T19:59:48.219Z,66.07
2024-02-06T20:02:15.104Z,66.72
2024-02-06T20:04:42.023Z,66.69
2024-02-06T20:07:09.046Z,67.14
2024-02-06T20:09:35.888Z,67.57
2024-02-06T20:12:02.651Z,67.62
2024-02-06T20:14:29.501Z,67.52
2024-02-06T20:16:56.363Z,67.57
2024-02-06T20:19:23.197Z,67.64
2024-02-06T20:21:50.060Z,67.76
2024-02-06T20:24:16.839Z,67.29
2024-02-06T20:26:43.703Z,67.17
2024-02-06T20:29:10.439Z,66.83
2024-02-06T20:31:37.252Z,66.89
2024-02-06T20:34:04.117Z,67.81
2024-02-06T20:36:31.064Z,67.83
2024-02-06T20:38:57.806Z,68.86
2024-02-06T20:41:24.604Z,69.84
2024-02-06T20:43:51.395Z,71.39
2024-02-06T20:46:18.221Z,71.40
2024-02-06T20:48:45.015Z,71.53
2024-02-06T20:51:11.835Z,70.50
2024-02-06T20:53:38.676Z,70.47
2024-02-06T20:56:05.413Z,69.78
2024-02-06T20:58:32.201Z,69.14
2024-02-06T21:00:59.026Z,69.61
2024-02-06T21:03:25.789Z,69.35
2024-02-06T21:05:52.600Z,69.67
2024-02-06T21:08:19.426Z,70.60
2024-02-06T21:10:46.267Z,72.28
2024-02-06T21:13:13.156Z,73.11
2024-02-06T21:15:39.964Z,73.51
2024-02-06T21:18:06.891Z,73.84
2024-02-06T21:20:33.976Z,74.74
2024-02-06T21:23:01.039Z,76.24
2024-02-06T21:25:27.902Z,76.65
2024-02-06T21:27:54.732Z,76.66
2024-02-06T21:30:21.515Z,77.19
2024-02-06T21:32:48.342Z,77.30
2024-02-06T21:35:15.209Z,77.28
2024-02-06T21:37:42.126Z,78.03
2024-02-06T21:40:08.989Z,78.33
2024-02-06T21:42:35.789Z,77.97
2024-02-06T21:45:02.532Z,77.85
2024-02-06T21:47:29.366Z,79.02
2024-02-06T21:49:56.284Z,78.07
2024-02-06T21:52:23.166Z,76.38
2024-02-06T21:54:49.958Z,75.95
2024-02-06T21:57:16.746Z,75.87
2024-02-06T21:59:43.555Z,74.82
2024-02-06T22:02:10.583Z,74.82
2024-02-06T22:04:37.656Z,75.21
2024-02-06T22:07:04.720Z,74.48
2024-02-06T22:09:31.578Z,74.61
2024-02-06T22:11:58.380Z,73.97
2024-02-06T22:14:25.228Z,73.43
2024-02-06T22:16:52.057Z,73.31
2024-02-06T22:19:19.511Z,73.21
2024-02-06T22:21:46.323Z,73.68
2024-02-06T22:24:13.325Z,73.50
2024-02-06T22:26:40.089Z,73.44
2024-02-06T22:29:06.876Z,73.63
2024-02-06T22:31:33.679Z,73.77
2024-02-06T22:34:00.474Z,73.58
2024-02-06T22:36:27.228Z,74.56
2024-02-06T22:38:54.047Z,74.75
2024-02-06T22:41:20.814Z,75.47
2024-02-06T22:43:47.642Z,75.81
2024-02-06T22:46:14.561Z,76.58
2024-02-06T22:48:41.346Z,76.33
2024-02-06T22:51:08.128Z,77.07
2024-02-06T22:53:34.850Z,78.23
2024-02-06T22:56:01.567Z,78.94
2024-02-06T22:58:28.401Z,81.46
2024-02-06T23:00:55.306Z,81.98
2024-02-06T23:03:22.148Z,82.18
2024-02-06T23:05:48.926Z,82.26
2024-02-06T23:08:15.742Z,82.48
2024-02-06T23:10:42.534Z,82.72
2024-02-06T23:13:09.393Z,82.62
2024-02-06T23:15:36.144Z,82.41
2024-02-06T23:18:03.168Z,82.05
2024-02-06T23:20:30.039Z,82.04
2024-02-06T23:22:56.824Z,81.55
2024-02-06T23:25:23.639Z,82.04
2024-02-06T23:27:50.610Z,81.69
2024-02-06T23:30:17.376Z,81.51
2024-02-06T23:32:44.124Z,81.15
2024-02-06T23:35:11.054Z,81.76
2024-02-06T23:37:37.861Z,82.23
2024-02-06T23:40:04.653Z,82.20
2024-02-06T23:42:31.485Z,82.05
2024-02-06T23:44:58.233Z,82.54
2024-02-06T23:47:25.003Z,82.67
2024-02-06T23:49:51.905Z,82.58
2024-02-06T23:52:18.855Z,83.26
2024-02-06T23:54:45.727Z,82.92
2024-02-06T23:57:12.647Z,83.10
2024-02-06T23:59:39.396Z,83.50
